createdAt,value
2023-01-05T00:00:41.077Z,0.00
2023-01-05T00:01:41.155Z,0.00
2023-01-05T00:02:41.054Z,0.00
2023-01-05T00:03:40.980Z,0.00
2023-01-05T00:04:41.012Z,0.00
2023-01-05T00:05:40.967Z,0.00
2023-01-05T00:06:40.944Z,0.00
2023-01-05T00:07:40.955Z,0.00
2023-01-05T00:08:40.934Z,0.00
2023-01-05T00:09:40.917Z,0.00
2023-01-05T00:10:40.922Z,0.00
2023-01-05T00:11:40.903Z,0.00
2023-01-05T00:12:40.902Z,0.00
2023-01-05T00:13:40.879Z,0.00
2023-01-05T00:14:40.858Z,0.00
2023-01-05T00:15:40.865Z,0.00
2023-01-05T00:16:40.962Z,0.00
2023-01-05T00:17:40.828Z,0.00
2023-01-05T00:18:40.830Z,0.00
2023-01-05T00:19:40.812Z,0.00
2023-01-05T00:20:40.829Z,0.00
2023-01-05T00:21:40.794Z,0.00
2023-01-05T00:22:40.769Z,0.00
2023-01-05T00:23:40.788Z,0.00
2023-01-05T00:24:40.769Z,0.00
2023-01-05T00:25:40.777Z,0.00
2023-01-05T00:26:40.729Z,0.00
2023-01-05T00:27:40.735Z,0.00
2023-01-05T00:28:40.715Z,0.00
2023-01-05T00:29:40.692Z,0.00
2023-01-05T00:30:40.699Z,0.00
2023-01-05T00:31:40.707Z,0.00
2023-01-05T00:32:40.680Z,0.00
2023-01-05T00:33:40.656Z,0.00
2023-01-05T00:34:40.950Z,0.00
2023-01-05T00:35:40.644Z,0.00
2023-01-05T00:36:40.643Z,0.00
2023-01-05T00:37:40.637Z,0.00
2023-01-05T00:38:40.622Z,0.00
2023-01-05T00:39:40.613Z,0.00
2023-01-05T00:40:40.589Z,0.00
2023-01-05T00:41:40.577Z,0.00
2023-01-05T00:42:40.578Z,0.00
2023-01-05T00:43:40.550Z,0.00
2023-01-05T00:44:40.581Z,0.00
2023-01-05T00:45:40.583Z,0.00
2023-01-05T00:46:40.535Z,0.00
2023-01-05T00:47:40.524Z,0.00
2023-01-05T00:48:40.515Z,0.00
2023-01-05T00:49:40.497Z,0.00
2023-01-05T00:50:40.486Z,0.00
2023-01-05T00:51:40.481Z,0.00
2023-01-05T00:52:40.465Z,0.00
2023-01-05T00:53:40.455Z,0.00
2023-01-05T00:54:40.431Z,0.00
2023-01-05T00:55:40.456Z,0.00
2023-01-05T00:56:40.453Z,0.00
2023-01-05T00:57:40.405Z,0.00
2023-01-05T00:58:40.400Z,0.00
2023-01-05T00:59:40.388Z,0.00
2023-01-05T01:00:47.373Z,0.00
2023-01-05T01:01:41.472Z,0.00
2023-01-05T01:02:40.367Z,0.00
2023-01-05T01:03:40.401Z,0.00
2023-01-05T01:04:40.362Z,0.00
2023-01-05T01:05:40.326Z,0.00
2023-01-05T01:06:40.309Z,0.00
2023-01-05T01:07:40.303Z,0.00
2023-01-05T01:08:40.280Z,0.00
2023-01-05T01:09:40.275Z,0.00
2023-01-05T01:10:40.287Z,0.00
2023-01-05T01:11:40.273Z,0.00
2023-01-05T01:13:09.645Z,0.00
2023-01-05T01:14:09.645Z,0.00
2023-01-05T01:15:09.631Z,0.00
2023-01-05T01:16:09.709Z,0.00
2023-01-05T01:17:09.610Z,0.00
2023-01-05T01:18:09.604Z,0.00
2023-01-05T01:19:09.598Z,0.00
2023-01-05T01:20:09.586Z,0.00
2023-01-05T01:21:09.574Z,0.00
2023-01-05T01:22:09.573Z,0.00
2023-01-05T01:23:09.559Z,0.00
2023-01-05T01:24:09.563Z,0.00
2023-01-05T01:25:09.559Z,0.00
2023-01-05T01:26:09.531Z,0.00
2023-01-05T01:27:09.550Z,0.00
2023-01-05T01:28:09.503Z,0.00
2023-01-05T01:29:09.511Z,0.00
2023-01-05T01:30:09.467Z,0.00
2023-01-05T01:31:09.531Z,0.00
2023-01-05T01:32:09.457Z,0.00
2023-01-05T01:33:09.446Z,0.00
2023-01-05T01:34:09.443Z,0.00
2023-01-05T01:35:09.421Z,0.00
2023-01-05T01:36:09.404Z,0.00
2023-01-05T01:37:09.389Z,0.00
2023-01-05T01:38:09.393Z,0.00
2023-01-05T01:39:09.402Z,0.00
2023-01-05T01:40:09.368Z,0.00
2023-01-05T01:41:09.352Z,0.00
2023-01-05T01:42:09.354Z,0.00
2023-01-05T01:43:09.361Z,0.00
2023-01-05T01:44:09.318Z,0.00
2023-01-05T01:45:09.316Z,0.00
2023-01-05T01:46:09.367Z,0.00
2023-01-05T01:47:09.288Z,0.00
2023-01-05T01:48:09.292Z,0.00
2023-01-05T01:49:09.273Z,0.00
2023-01-05T01:50:09.249Z,0.00
2023-01-05T01:51:09.247Z,0.00
2023-01-05T01:52:09.237Z,0.00
2023-01-05T01:53:09.243Z,0.00
2023-01-05T01:54:09.213Z,0.00
2023-01-05T01:55:09.204Z,0.00
2023-01-05T01:56:09.186Z,0.00
2023-01-05T01:57:09.180Z,0.00
2023-01-05T01:58:09.160Z,0.00
2023-01-05T01:59:09.182Z,0.00
2023-01-05T02:00:09.172Z,0.00
2023-01-05T02:01:09.311Z,0.00
2023-01-05T02:02:09.307Z,0.00
2023-01-05T02:03:09.109Z,0.00
2023-01-05T02:04:09.145Z,0.00
2023-01-05T02:05:09.123Z,0.00
2023-01-05T02:06:09.098Z,0.00
2023-01-05T02:07:09.065Z,0.00
2023-01-05T02:08:09.062Z,0.00
2023-01-05T02:09:09.052Z,0.00
2023-01-05T02:10:09.036Z,0.00
2023-01-05T02:11:09.035Z,0.00
2023-01-05T02:12:09.036Z,0.00
2023-01-05T02:13:08.995Z,0.00
2023-01-05T02:14:08.990Z,0.00
2023-01-05T02:15:09.011Z,0.00
2023-01-05T02:16:08.975Z,0.00
2023-01-05T02:17:09.062Z,0.00
2023-01-05T02:18:08.952Z,0.00
2023-01-05T02:19:08.938Z,0.00
2023-01-05T02:20:08.933Z,0.00
2023-01-05T02:21:14.908Z,0.00
2023-01-05T02:22:09.928Z,0.00
2023-01-05T02:23:08.891Z,0.00
2023-01-05T02:24:08.897Z,0.00
2023-01-05T02:25:08.875Z,0.00
2023-01-05T02:26:08.874Z,0.00
2023-01-05T02:27:08.862Z,0.00
2023-01-05T02:28:08.853Z,0.00
2023-01-05T02:29:08.847Z,0.00
2023-01-05T02:30:08.825Z,0.00
2023-01-05T02:31:08.882Z,0.00
2023-01-05T02:32:08.814Z,0.00
2023-01-05T02:33:08.818Z,0.00
2023-01-05T02:34:08.801Z,0.00
2023-01-05T02:35:08.775Z,0.00
2023-01-05T02:36:08.764Z,0.00
2023-01-05T02:37:08.748Z,0.00
2023-01-05T02:38:08.734Z,0.00
2023-01-05T02:39:08.738Z,0.00
2023-01-05T02:40:08.715Z,0.00
2023-01-05T02:41:08.709Z,0.00
2023-01-05T02:42:08.697Z,0.00
2023-01-05T02:43:08.698Z,0.00
2023-01-05T02:44:08.689Z,0.00
2023-01-05T02:45:08.667Z,0.00
2023-01-05T02:46:08.778Z,0.00
2023-01-05T02:47:08.664Z,0.00
2023-01-05T02:48:08.623Z,0.00
2023-01-05T02:49:08.632Z,0.00
2023-01-05T02:50:08.612Z,0.00
2023-01-05T02:51:08.675Z,0.00
2023-01-05T02:52:09.396Z,0.00
2023-01-05T02:53:08.620Z,0.00
2023-01-05T02:54:09.251Z,0.00
2023-01-05T02:55:09.259Z,0.00
2023-01-05T02:56:08.542Z,0.00
2023-01-05T02:57:08.677Z,0.00
2023-01-05T02:58:08.661Z,0.00
2023-01-05T02:59:08.525Z,0.00
2023-01-05T03:00:08.676Z,0.00
2023-01-05T03:01:08.673Z,0.00
2023-01-05T03:02:08.649Z,0.00
2023-01-05T03:03:08.595Z,0.00
2023-01-05T03:04:08.451Z,0.00
2023-01-05T03:05:08.454Z,0.00
2023-01-05T03:06:08.462Z,0.00
2023-01-05T03:07:08.423Z,0.00
2023-01-05T03:08:08.428Z,0.00
2023-01-05T03:09:08.406Z,0.00
2023-01-05T03:10:08.394Z,0.00
2023-01-05T03:11:08.400Z,0.00
2023-01-05T03:12:08.385Z,0.00
2023-01-05T03:13:08.371Z,0.00
2023-01-05T03:14:08.368Z,0.00
2023-01-05T03:15:08.340Z,0.00
2023-01-05T03:16:08.422Z,0.00
2023-01-05T03:17:08.322Z,0.00
2023-01-05T03:18:08.303Z,0.00
2023-01-05T03:19:08.325Z,0.00
2023-01-05T03:20:08.303Z,0.00
2023-01-05T03:21:08.293Z,0.00
2023-01-05T03:22:08.317Z,0.00
2023-01-05T03:23:08.256Z,0.00
2023-01-05T03:24:08.256Z,0.00
2023-01-05T03:25:08.235Z,0.00
2023-01-05T03:26:08.241Z,0.00
2023-01-05T03:27:08.215Z,0.00
2023-01-05T03:28:08.199Z,0.00
2023-01-05T03:29:08.193Z,0.00
2023-01-05T03:30:08.180Z,0.00
2023-01-05T03:31:08.206Z,0.00
2023-01-05T03:32:08.180Z,0.00
2023-01-05T03:33:08.135Z,0.00
2023-01-05T03:34:08.133Z,0.00
2023-01-05T03:35:08.146Z,0.00
2023-01-05T03:36:08.116Z,0.00
2023-01-05T03:37:08.123Z,0.00
2023-01-05T03:38:08.093Z,0.00
2023-01-05T03:39:08.092Z,0.00
2023-01-05T03:40:08.090Z,0.00
2023-01-05T03:41:08.054Z,0.00
2023-01-05T03:42:08.039Z,0.00
2023-01-05T03:43:08.055Z,0.00
2023-01-05T03:44:08.021Z,0.00
2023-01-05T03:45:08.024Z,0.00
2023-01-05T03:46:08.076Z,0.00
2023-01-05T03:47:08.003Z,0.00
2023-01-05T03:48:08.015Z,0.00
2023-01-05T03:49:07.991Z,0.00
2023-01-05T03:50:07.969Z,0.00
2023-01-05T03:51:08.016Z,0.00
2023-01-05T03:52:07.938Z,0.00
2023-01-05T03:53:07.956Z,0.00
2023-01-05T03:54:07.936Z,0.00
2023-01-05T03:55:07.915Z,0.00
2023-01-05T03:56:07.907Z,0.00
2023-01-05T03:57:07.891Z,0.00
2023-01-05T03:58:07.885Z,0.00
2023-01-05T03:59:07.883Z,0.00
2023-01-05T04:00:07.886Z,0.00
2023-01-05T04:01:07.977Z,0.00
2023-01-05T04:02:08.054Z,0.00
2023-01-05T04:03:07.980Z,0.00
2023-01-05T04:04:07.832Z,0.00
2023-01-05T04:05:07.805Z,0.00
2023-01-05T04:06:07.804Z,0.00
2023-01-05T04:07:07.791Z,0.00
2023-01-05T04:08:07.775Z,0.00
2023-01-05T04:09:07.766Z,0.00
2023-01-05T04:10:07.763Z,0.00
2023-01-05T04:11:07.730Z,0.00
2023-01-05T04:12:07.739Z,0.00
2023-01-05T04:13:07.706Z,0.00
2023-01-05T04:14:07.724Z,0.00
2023-01-05T04:15:07.710Z,0.00
2023-01-05T04:16:07.721Z,0.00
2023-01-05T04:17:07.674Z,0.00
2023-01-05T04:18:07.663Z,0.00
2023-01-05T04:19:07.673Z,0.00
2023-01-05T04:20:07.659Z,0.00
2023-01-05T04:21:07.659Z,0.00
2023-01-05T04:22:07.620Z,0.00
2023-01-05T04:23:07.651Z,0.00
2023-01-05T04:24:07.624Z,0.00
2023-01-05T04:25:07.604Z,0.00
2023-01-05T04:26:07.583Z,0.00
2023-01-05T04:27:07.589Z,0.00
2023-01-05T04:28:07.556Z,0.00
2023-01-05T04:29:07.551Z,0.00
2023-01-05T04:30:07.543Z,0.00
2023-01-05T04:31:07.578Z,0.00
2023-01-05T04:32:07.533Z,0.00
2023-01-05T04:33:07.495Z,0.00
2023-01-05T04:34:07.497Z,0.00
2023-01-05T04:35:11.279Z,0.00
2023-01-05T04:36:07.480Z,0.00
2023-01-05T04:37:07.465Z,0.00
2023-01-05T04:38:07.458Z,0.00
2023-01-05T04:39:07.451Z,0.00
2023-01-05T04:40:07.431Z,0.00
2023-01-05T04:41:07.446Z,0.00
2023-01-05T04:42:07.400Z,0.00
2023-01-05T04:43:07.390Z,0.00
2023-01-05T04:44:07.380Z,0.00
2023-01-05T04:45:07.370Z,0.00
2023-01-05T04:46:07.455Z,0.00
2023-01-05T04:47:07.348Z,0.00
2023-01-05T04:48:07.348Z,0.00
2023-01-05T04:49:07.330Z,0.00
2023-01-05T04:50:07.315Z,0.00
2023-01-05T04:51:07.313Z,0.00
2023-01-05T04:52:07.285Z,0.00
2023-01-05T04:53:07.281Z,0.00
2023-01-05T04:54:07.273Z,0.00
2023-01-05T04:55:07.279Z,0.00
2023-01-05T04:56:07.252Z,0.00
2023-01-05T04:57:07.245Z,0.00
2023-01-05T04:58:11.825Z,0.00
2023-01-05T04:59:08.229Z,0.00
2023-01-05T05:00:07.216Z,0.00
2023-01-05T05:01:07.289Z,0.00
2023-01-05T05:02:07.302Z,0.00
2023-01-05T05:03:07.316Z,0.00
2023-01-05T05:04:07.166Z,0.00
2023-01-05T05:05:07.147Z,0.00
2023-01-05T05:06:07.148Z,0.00
2023-01-05T05:07:07.145Z,0.00
2023-01-05T05:08:07.124Z,0.00
2023-01-05T05:09:07.113Z,0.00
2023-01-05T05:10:07.123Z,0.00
2023-01-05T05:11:07.151Z,0.00
2023-01-05T05:12:07.081Z,0.00
2023-01-05T05:13:07.068Z,0.00
2023-01-05T05:14:07.053Z,0.00
2023-01-05T05:15:07.082Z,0.00
2023-01-05T05:16:07.086Z,0.00
2023-01-05T05:17:07.028Z,0.00
2023-01-05T05:18:09.408Z,0.00
2023-01-05T05:19:07.005Z,0.00
2023-01-05T05:20:07.003Z,0.00
2023-01-05T05:21:06.997Z,0.00
2023-01-05T05:22:06.969Z,0.00
2023-01-05T05:23:06.972Z,0.00
2023-01-05T05:24:06.954Z,0.00
2023-01-05T05:25:06.971Z,0.00
2023-01-05T05:26:06.927Z,0.00
2023-01-05T05:27:06.932Z,0.00
2023-01-05T05:28:06.907Z,0.00
2023-01-05T05:29:06.894Z,0.00
2023-01-05T05:30:06.885Z,0.00
2023-01-05T05:31:06.973Z,0.00
2023-01-05T05:32:06.868Z,0.00
2023-01-05T05:33:06.875Z,0.00
2023-01-05T05:34:06.863Z,0.00
2023-01-05T05:35:06.840Z,0.00
2023-01-05T05:36:06.853Z,0.00
2023-01-05T05:37:06.869Z,0.00
2023-01-05T05:38:06.818Z,0.00
2023-01-05T05:39:06.795Z,0.00
2023-01-05T05:40:06.794Z,0.00
2023-01-05T05:41:06.794Z,0.00
2023-01-05T05:42:06.767Z,0.00
2023-01-05T05:43:06.782Z,0.00
2023-01-05T05:44:06.800Z,0.00
2023-01-05T05:45:06.729Z,0.00
2023-01-05T05:46:06.794Z,0.00
2023-01-05T05:47:06.751Z,0.00
2023-01-05T05:48:06.704Z,0.00
2023-01-05T05:49:06.707Z,0.00
2023-01-05T05:50:06.679Z,0.00
2023-01-05T05:51:06.674Z,0.00
2023-01-05T05:52:06.654Z,0.00
2023-01-05T05:53:06.649Z,0.00
2023-01-05T05:54:06.632Z,0.00
2023-01-05T05:55:06.637Z,0.00
2023-01-05T05:56:06.611Z,0.00
2023-01-05T05:57:06.630Z,0.00
2023-01-05T05:58:14.129Z,0.00
2023-01-05T05:59:14.100Z,0.00
2023-01-05T06:00:15.339Z,0.00
2023-01-05T06:01:14.152Z,0.00
2023-01-05T06:02:06.725Z,0.00
2023-01-05T06:03:06.661Z,0.00
2023-01-05T06:04:06.524Z,0.00
2023-01-05T06:05:06.517Z,0.00
2023-01-05T06:06:06.511Z,0.00
2023-01-05T06:07:06.493Z,0.00
2023-01-05T06:08:06.484Z,0.00
2023-01-05T06:09:06.467Z,0.00
2023-01-05T06:10:06.458Z,0.00
2023-01-05T06:11:06.448Z,0.00
2023-01-05T06:12:06.439Z,0.00
2023-01-05T06:13:06.438Z,0.00
2023-01-05T06:14:06.459Z,0.00
2023-01-05T06:15:06.400Z,0.00
2023-01-05T06:16:06.438Z,0.00
2023-01-05T06:17:06.385Z,0.00
2023-01-05T06:18:06.394Z,0.00
2023-01-05T06:19:06.374Z,0.00
2023-01-05T06:20:06.365Z,0.00
2023-01-05T06:21:06.343Z,0.00
2023-01-05T06:22:06.335Z,0.00
2023-01-05T06:23:06.351Z,0.00
2023-01-05T06:24:06.313Z,0.00
2023-01-05T06:25:06.313Z,0.00
2023-01-05T06:26:06.313Z,0.00
2023-01-05T06:27:06.297Z,0.00
2023-01-05T06:28:06.269Z,0.00
2023-01-05T06:29:06.281Z,0.00
2023-01-05T06:30:06.266Z,0.00
2023-01-05T06:31:06.309Z,0.00
2023-01-05T06:32:06.219Z,0.00
2023-01-05T06:33:06.227Z,0.00
2023-01-05T06:34:06.210Z,0.00
2023-01-05T06:35:06.220Z,0.00
2023-01-05T06:36:06.195Z,0.00
2023-01-05T06:37:06.187Z,0.00
2023-01-05T06:38:06.162Z,0.00
2023-01-05T06:39:06.152Z,0.00
2023-01-05T06:40:06.147Z,0.00
2023-01-05T06:41:06.139Z,0.00
2023-01-05T06:42:06.116Z,0.00
2023-01-05T06:43:06.125Z,0.00
2023-01-05T06:44:06.100Z,0.00
2023-01-05T06:45:06.098Z,4.00
2023-01-05T06:46:06.135Z,4.00
2023-01-05T06:47:06.058Z,4.00
2023-01-05T06:48:06.054Z,4.00
2023-01-05T06:49:06.046Z,4.00
2023-01-05T06:50:06.028Z,4.00
2023-01-05T06:51:06.035Z,4.00
2023-01-05T06:52:09.582Z,4.00
2023-01-05T06:53:07.030Z,4.00
2023-01-05T06:54:05.980Z,4.00
2023-01-05T06:55:05.969Z,8.00
2023-01-05T06:56:05.966Z,4.00
2023-01-05T06:57:05.964Z,8.00
2023-01-05T06:58:05.947Z,4.00
2023-01-05T06:59:05.941Z,8.00
2023-01-05T07:00:05.923Z,12.00
2023-01-05T07:01:06.062Z,16.00
2023-01-05T07:02:06.094Z,28.00
2023-01-05T07:03:05.905Z,32.00
2023-01-05T07:04:06.015Z,24.00
2023-01-05T07:05:05.867Z,28.00
2023-01-05T07:06:09.989Z,36.00
2023-01-05T07:07:06.868Z,40.00
2023-01-05T07:08:05.835Z,32.00
2023-01-05T07:09:05.835Z,32.00
2023-01-05T07:10:05.825Z,36.00
2023-01-05T07:11:05.813Z,40.00
2023-01-05T07:12:05.793Z,44.00
2023-01-05T07:13:05.797Z,56.00
2023-01-05T07:14:05.780Z,72.00
2023-01-05T07:15:05.768Z,84.00
2023-01-05T07:16:05.850Z,80.00
2023-01-05T07:17:05.776Z,68.00
2023-01-05T07:18:05.752Z,64.00
2023-01-05T07:19:05.716Z,72.00
2023-01-05T07:20:05.719Z,92.00
2023-01-05T07:21:05.715Z,108.00
2023-01-05T07:22:05.702Z,120.00
2023-01-05T07:23:05.696Z,140.00
2023-01-05T07:24:05.664Z,160.00
2023-01-05T07:25:05.658Z,176.00
2023-01-05T07:26:05.654Z,212.00
2023-01-05T07:27:09.601Z,264.00
2023-01-05T07:28:05.648Z,320.00
2023-01-05T07:29:05.620Z,360.00
2023-01-05T07:30:05.605Z,400.00
2023-01-05T07:31:05.588Z,412.00
2023-01-05T07:32:05.715Z,420.00
2023-01-05T07:33:05.592Z,428.00
2023-01-05T07:34:05.598Z,436.00
2023-01-05T07:35:05.549Z,468.00
2023-01-05T07:36:05.539Z,532.00
2023-01-05T07:37:05.548Z,564.00
2023-01-05T07:38:05.566Z,600.00
2023-01-05T07:39:05.559Z,628.00
2023-01-05T07:40:05.501Z,648.00
2023-01-05T07:41:05.485Z,684.00
2023-01-05T07:42:05.477Z,720.00
2023-01-05T07:43:05.484Z,704.00
2023-01-05T07:44:05.466Z,672.00
2023-01-05T07:45:05.462Z,724.00
2023-01-05T07:46:05.532Z,696.00
2023-01-05T07:47:05.421Z,692.00
2023-01-05T07:48:05.407Z,676.00
2023-01-05T07:49:05.444Z,732.00
2023-01-05T07:50:05.418Z,772.00
2023-01-05T07:51:05.383Z,836.00
2023-01-05T07:52:05.394Z,796.00
2023-01-05T07:53:05.362Z,848.00
2023-01-05T07:54:05.364Z,880.00
2023-01-05T07:55:05.350Z,888.00
2023-01-05T07:56:05.339Z,896.00
2023-01-05T07:57:05.321Z,892.00
2023-01-05T07:58:05.322Z,924.00
2023-01-05T07:59:05.311Z,964.00
2023-01-05T08:00:05.293Z,932.00
2023-01-05T08:01:05.340Z,948.00
2023-01-05T08:02:05.381Z,924.00
2023-01-05T08:03:05.297Z,868.00
2023-01-05T08:04:05.340Z,896.00
2023-01-05T08:05:05.261Z,952.00
2023-01-05T08:06:05.290Z,1068.00
2023-01-05T08:07:05.215Z,1320.00
2023-01-05T08:08:05.247Z,1892.00
2023-01-05T08:09:05.208Z,1736.00
2023-01-05T08:10:05.200Z,1928.00
2023-01-05T08:11:05.173Z,1540.00
2023-01-05T08:12:05.182Z,1380.00
2023-01-05T08:13:05.146Z,1352.00
2023-01-05T08:14:12.700Z,1340.00
2023-01-05T08:15:05.122Z,1304.00
2023-01-05T08:16:05.128Z,1392.00
2023-01-05T08:17:05.149Z,1468.00
2023-01-05T08:18:05.116Z,1616.00
2023-01-05T08:19:10.673Z,1640.00
2023-01-05T08:20:06.097Z,1372.00
2023-01-05T08:21:05.065Z,1468.00
2023-01-05T08:22:05.074Z,1324.00
2023-01-05T08:23:05.050Z,1524.00
2023-01-05T08:24:05.037Z,1464.00
2023-01-05T08:25:05.031Z,1492.00
2023-01-05T08:26:05.011Z,1488.00
2023-01-05T08:27:05.129Z,1416.00
2023-01-05T08:28:05.052Z,1336.00
2023-01-05T08:29:05.046Z,1620.00
2023-01-05T08:30:04.998Z,1276.00
2023-01-05T08:31:04.995Z,1276.00
2023-01-05T08:32:05.025Z,1356.00
2023-01-05T08:33:04.984Z,1808.00
2023-01-05T08:34:04.957Z,1652.00
2023-01-05T08:35:04.928Z,1776.00
2023-01-05T08:36:04.911Z,1872.00
2023-01-05T08:37:04.909Z,1672.00
2023-01-05T08:38:04.910Z,1756.00
2023-01-05T08:39:04.905Z,1480.00
2023-01-05T08:40:04.902Z,1684.00
2023-01-05T08:41:04.866Z,1760.00
2023-01-05T08:42:04.836Z,1964.00
2023-01-05T08:43:04.830Z,2388.00
2023-01-05T08:44:04.816Z,3120.00
2023-01-05T08:45:04.825Z,4644.00
2023-01-05T08:46:04.857Z,2544.00
2023-01-05T08:47:04.790Z,2692.00
2023-01-05T08:48:04.779Z,2916.00
2023-01-05T08:49:04.810Z,2572.00
2023-01-05T08:50:04.758Z,2584.00
2023-01-05T08:51:04.742Z,2728.00
2023-01-05T08:52:04.755Z,2672.00
2023-01-05T08:53:04.721Z,2696.00
2023-01-05T08:54:04.745Z,2596.00
2023-01-05T08:55:04.744Z,2256.00
2023-01-05T08:56:04.707Z,2092.00
2023-01-05T08:57:04.674Z,2032.00
2023-01-05T08:58:04.668Z,2116.00
2023-01-05T08:59:04.678Z,1996.00
2023-01-05T09:00:04.671Z,2028.00
2023-01-05T09:01:04.789Z,2020.00
2023-01-05T09:02:04.751Z,1988.00
2023-01-05T09:03:04.779Z,1988.00
2023-01-05T09:04:04.621Z,1976.00
2023-01-05T09:05:04.610Z,1968.00
2023-01-05T09:06:04.592Z,1996.00
2023-01-05T09:07:04.587Z,2012.00
2023-01-05T09:08:04.575Z,2032.00
2023-01-05T09:09:04.553Z,2040.00
2023-01-05T09:10:04.606Z,2028.00
2023-01-05T09:11:04.535Z,2016.00
2023-01-05T09:12:04.523Z,2032.00
2023-01-05T09:13:04.520Z,2052.00
2023-01-05T09:14:04.523Z,2060.00
2023-01-05T09:15:04.503Z,2052.00
2023-01-05T09:16:04.497Z,2064.00
2023-01-05T09:17:07.487Z,2072.00
2023-01-05T09:18:04.537Z,2100.00
2023-01-05T09:19:04.497Z,2100.00
2023-01-05T09:20:04.447Z,2092.00
2023-01-05T09:21:04.455Z,2100.00
2023-01-05T09:22:04.449Z,2148.00
2023-01-05T09:23:04.421Z,2260.00
2023-01-05T09:24:04.398Z,2408.00
2023-01-05T09:25:04.419Z,2736.00
2023-01-05T09:26:04.396Z,2540.00
2023-01-05T09:27:04.369Z,3016.00
2023-01-05T09:28:04.383Z,3128.00
2023-01-05T09:29:04.346Z,3328.00
2023-01-05T09:30:04.327Z,3832.00
2023-01-05T09:31:04.406Z,3552.00
2023-01-05T09:32:04.318Z,4748.00
2023-01-05T09:33:04.302Z,3876.00
2023-01-05T09:34:04.327Z,4060.00
2023-01-05T09:35:04.271Z,4532.00
2023-01-05T09:36:04.276Z,3984.00
2023-01-05T09:37:04.270Z,3584.00
2023-01-05T09:38:04.245Z,3900.00
2023-01-05T09:39:04.263Z,4032.00
2023-01-05T09:40:04.225Z,3692.00
2023-01-05T09:41:04.247Z,3864.00
2023-01-05T09:42:04.338Z,3816.00
2023-01-05T09:43:04.194Z,3420.00
2023-01-05T09:44:04.189Z,3268.00
2023-01-05T09:45:04.180Z,3968.00
2023-01-05T09:46:04.188Z,3640.00
2023-01-05T09:47:04.155Z,3004.00
2023-01-05T09:48:04.188Z,3116.00
2023-01-05T09:49:04.152Z,3664.00
2023-01-05T09:50:04.121Z,3820.00
2023-01-05T09:51:04.113Z,3828.00
2023-01-05T09:52:04.102Z,4548.00
2023-01-05T09:53:04.108Z,4584.00
2023-01-05T09:54:04.076Z,3636.00
2023-01-05T09:55:04.083Z,4952.00
2023-01-05T09:56:04.045Z,4660.00
2023-01-05T09:57:11.411Z,5196.00
2023-01-05T09:58:05.165Z,5244.00
2023-01-05T09:59:04.025Z,4984.00
2023-01-05T10:00:04.019Z,5764.00
2023-01-05T10:01:04.058Z,5448.00
2023-01-05T10:02:03.985Z,5596.00
2023-01-05T10:03:04.084Z,5480.00
2023-01-05T10:04:05.088Z,5608.00
2023-01-05T10:05:04.080Z,4060.00
2023-01-05T10:06:03.946Z,4400.00
2023-01-05T10:07:03.945Z,5724.00
2023-01-05T10:08:03.942Z,4420.00
2023-01-05T10:09:03.915Z,4664.00
2023-01-05T10:10:03.947Z,4796.00
2023-01-05T10:11:03.893Z,5288.00
2023-01-05T10:12:03.882Z,4648.00
2023-01-05T10:13:04.012Z,4700.00
2023-01-05T10:14:03.972Z,3564.00
2023-01-05T10:15:03.848Z,4968.00
2023-01-05T10:16:03.938Z,5444.00
2023-01-05T10:17:39.134Z,3516.00
2023-01-05T10:18:04.811Z,4756.00
2023-01-05T10:19:03.807Z,4752.00
2023-01-05T10:20:03.858Z,4668.00
2023-01-05T10:21:06.408Z,4368.00
2023-01-05T10:22:03.766Z,5200.00
2023-01-05T10:23:03.757Z,3764.00
2023-01-05T10:24:03.768Z,5812.00
2023-01-05T10:25:12.404Z,4372.00
2023-01-05T10:26:11.268Z,4276.00
2023-01-05T10:28:04.709Z,3668.00
2023-01-05T10:29:03.732Z,3276.00
2023-01-05T10:30:03.813Z,3716.00
2023-01-05T10:31:03.719Z,3272.00
2023-01-05T10:32:03.681Z,3420.00
2023-01-05T10:34:06.565Z,2324.00
2023-01-05T10:35:03.666Z,3012.00
2023-01-05T10:36:08.593Z,2948.00
2023-01-05T10:37:09.331Z,2400.00
2023-01-05T10:38:04.631Z,1724.00
2023-01-05T10:39:03.606Z,1804.00
2023-01-05T10:40:03.601Z,2680.00
2023-01-05T10:41:03.566Z,2360.00
2023-01-05T10:42:03.562Z,2652.00
2023-01-05T10:43:03.554Z,3004.00
2023-01-05T10:44:03.554Z,2156.00
2023-01-05T10:45:03.549Z,2424.00
2023-01-05T10:46:32.206Z,2544.00
2023-01-05T10:47:04.538Z,2404.00
2023-01-05T10:48:03.491Z,2192.00
2023-01-05T10:49:03.478Z,3620.00
2023-01-05T10:50:03.504Z,4316.00
2023-01-05T10:51:03.459Z,3084.00
2023-01-05T10:52:03.449Z,3784.00
2023-01-05T10:53:03.463Z,3440.00
2023-01-05T10:54:03.439Z,2872.00
2023-01-05T10:55:03.426Z,3324.00
2023-01-05T10:56:03.412Z,3880.00
2023-01-05T10:57:03.398Z,3408.00
2023-01-05T10:58:03.397Z,3500.00
2023-01-05T10:59:03.379Z,3440.00
2023-01-05T11:00:03.458Z,2712.00
2023-01-05T11:01:03.525Z,2336.00
2023-01-05T11:02:03.622Z,2952.00
2023-01-05T11:03:03.333Z,2504.00
2023-01-05T11:04:27.865Z,3480.00
2023-01-05T11:05:04.378Z,2720.00
2023-01-05T11:06:03.301Z,2568.00
2023-01-05T11:07:03.295Z,3248.00
2023-01-05T11:08:03.285Z,3112.00
2023-01-05T11:09:03.257Z,2716.00
2023-01-05T11:10:03.270Z,2744.00
2023-01-05T11:11:03.265Z,2832.00
2023-01-05T11:12:03.257Z,3188.00
2023-01-05T11:13:03.215Z,3052.00
2023-01-05T11:14:03.204Z,3308.00
2023-01-05T11:15:03.199Z,3000.00
2023-01-05T11:16:03.241Z,3772.00
2023-01-05T11:17:03.196Z,3352.00
2023-01-05T11:18:03.287Z,3636.00
2023-01-05T11:19:03.154Z,3744.00
2023-01-05T11:20:03.149Z,3632.00
2023-01-05T11:21:03.126Z,3856.00
2023-01-05T11:22:03.176Z,2520.00
2023-01-05T11:23:03.111Z,2672.00
2023-01-05T11:24:03.100Z,2312.00
2023-01-05T11:25:03.103Z,2436.00
2023-01-05T11:26:03.087Z,2628.00
2023-01-05T11:27:03.074Z,2260.00
2023-01-05T11:28:05.318Z,2148.00
2023-01-05T11:29:03.049Z,2220.00
2023-01-05T11:30:03.037Z,2240.00
2023-01-05T11:31:03.053Z,2340.00
2023-01-05T11:32:03.009Z,1904.00
2023-01-05T11:33:03.005Z,2008.00
2023-01-05T11:34:03.119Z,1732.00
2023-01-05T11:35:02.979Z,1728.00
2023-01-05T11:36:02.968Z,1776.00
2023-01-05T11:37:07.770Z,2704.00
2023-01-05T11:38:03.956Z,3268.00
2023-01-05T11:39:02.961Z,3536.00
2023-01-05T11:40:02.922Z,4052.00
2023-01-05T11:41:02.913Z,3952.00
2023-01-05T11:42:02.907Z,4192.00
2023-01-05T11:43:02.904Z,3936.00
2023-01-05T11:44:02.879Z,3724.00
2023-01-05T11:45:02.923Z,4248.00
2023-01-05T11:46:02.941Z,4524.00
2023-01-05T11:47:02.872Z,4604.00
2023-01-05T11:48:02.851Z,4752.00
2023-01-05T11:49:02.855Z,4492.00
2023-01-05T11:50:08.754Z,4540.00
2023-01-05T11:51:03.819Z,4056.00
2023-01-05T11:52:02.802Z,4416.00
2023-01-05T11:53:02.829Z,4248.00
2023-01-05T11:54:02.774Z,4388.00
2023-01-05T11:55:02.765Z,4656.00
2023-01-05T11:56:02.756Z,4396.00
2023-01-05T11:57:02.754Z,5016.00
2023-01-05T11:58:02.735Z,3844.00
2023-01-05T11:59:02.734Z,4020.00
2023-01-05T12:00:02.733Z,3868.00
2023-01-05T12:01:02.753Z,3872.00
2023-01-05T12:02:02.693Z,4040.00
2023-01-05T12:03:02.773Z,4012.00
2023-01-05T12:04:02.808Z,4016.00
2023-01-05T12:05:02.651Z,3596.00
2023-01-05T12:06:02.772Z,3708.00
2023-01-05T12:07:02.651Z,3800.00
2023-01-05T12:08:02.660Z,3656.00
2023-01-05T12:09:02.646Z,3352.00
2023-01-05T12:10:02.616Z,3268.00
2023-01-05T12:11:02.596Z,3368.00
2023-01-05T12:12:02.597Z,3616.00
2023-01-05T12:13:02.569Z,3660.00
2023-01-05T12:14:02.574Z,4428.00
2023-01-05T12:15:02.572Z,3736.00
2023-01-05T12:16:02.836Z,3768.00
2023-01-05T12:17:02.654Z,3296.00
2023-01-05T12:18:02.520Z,3328.00
2023-01-05T12:19:02.500Z,3668.00
2023-01-05T12:20:02.521Z,3696.00
2023-01-05T12:21:02.488Z,3396.00
2023-01-05T12:22:02.937Z,3072.00
2023-01-05T12:23:02.550Z,3428.00
2023-01-05T12:24:02.451Z,3220.00
2023-01-05T12:25:02.440Z,3312.00
2023-01-05T12:26:02.446Z,3168.00
2023-01-05T12:27:02.426Z,3656.00
2023-01-05T12:28:05.381Z,4024.00
2023-01-05T12:30:15.818Z,3624.00
2023-01-05T12:33:44.552Z,4360.00
2023-01-05T12:34:07.291Z,4152.00
2023-01-05T12:35:03.326Z,4740.00
2023-01-05T12:36:02.336Z,4064.00
2023-01-05T12:37:02.317Z,3876.00
2023-01-05T12:38:09.974Z,4632.00
2023-01-05T12:39:10.983Z,4912.00
2023-01-05T12:40:02.274Z,3636.00
2023-01-05T12:41:11.019Z,3420.00
2023-01-05T12:42:02.267Z,3568.00
2023-01-05T12:43:02.246Z,4028.00
2023-01-05T12:44:02.262Z,3812.00
2023-01-05T12:45:02.240Z,3636.00
2023-01-05T12:46:02.234Z,4032.00
2023-01-05T12:47:02.338Z,3856.00
2023-01-05T12:48:02.203Z,3928.00
2023-01-05T12:49:02.200Z,3288.00
2023-01-05T12:50:02.180Z,3576.00
2023-01-05T12:51:02.173Z,3768.00
2023-01-05T12:52:06.563Z,3288.00